Map

Track Data

SID SEASON NUMBER BASIN SUBBASIN NAME ISO_TIME NATURE LAT LON WMO_WIND WMO_PRES WMO_AGENCY TRACK_TYPE DIST2LAND LANDFALL IFLAG USA_AGENCY USA_ATCF_ID USA_LAT USA_LON USA_RECORD USA_STATUS USA_WIND USA_PRES USA_SSHS USA_R34_NE USA_R34_SE USA_R34_SW USA_R34_NW USA_R50_NE USA_R50_SE USA_R50_SW USA_R50_NW USA_R64_NE USA_R64_SE USA_R64_SW USA_R64_NW USA_POCI USA_ROCI USA_RMW USA_EYE TOKYO_LAT TOKYO_LON TOKYO_GRADE TOKYO_WIND TOKYO_PRES TOKYO_R50_DIR TOKYO_R50_LONG TOKYO_R50_SHORT TOKYO_R30_DIR TOKYO_R30_LONG TOKYO_R30_SHORT TOKYO_LAND CMA_LAT CMA_LON CMA_CAT CMA_WIND CMA_PRES HKO_LAT HKO_LON HKO_CAT HKO_WIND HKO_PRES NEWDELHI_LAT NEWDELHI_LON NEWDELHI_GRADE NEWDELHI_WIND NEWDELHI_PRES NEWDELHI_CI NEWDELHI_DP NEWDELHI_POCI REUNION_LAT REUNION_LON REUNION_TYPE REUNION_WIND REUNION_PRES REUNION_TNUM REUNION_CI REUNION_RMW REUNION_R34_NE REUNION_R34_SE REUNION_R34_SW REUNION_R34_NW REUNION_R50_NE REUNION_R50_SE REUNION_R50_SW REUNION_R50_NW REUNION_R64_NE REUNION_R64_SE REUNION_R64_SW REUNION_R64_NW BOM_LAT BOM_LON BOM_TYPE BOM_WIND BOM_PRES BOM_TNUM BOM_CI BOM_RMW BOM_R34_NE BOM_R34_SE BOM_R34_SW BOM_R34_NW BOM_R50_NE BOM_R50_SE BOM_R50_SW BOM_R50_NW BOM_R64_NE BOM_R64_SE BOM_R64_SW BOM_R64_NW BOM_ROCI BOM_POCI BOM_EYE BOM_POS_METHOD BOM_PRES_METHOD NADI_LAT NADI_LON NADI_CAT NADI_WIND NADI_PRES WELLINGTON_LAT WELLINGTON_LON WELLINGTON_WIND WELLINGTON_PRES DS824_LAT DS824_LON DS824_STAGE DS824_WIND DS824_PRES TD9636_LAT TD9636_LON TD9636_STAGE TD9636_WIND TD9636_PRES TD9635_LAT TD9635_LON TD9635_WIND TD9635_PRES TD9635_ROCI NEUMANN_LAT NEUMANN_LON NEUMANN_CLASS NEUMANN_WIND NEUMANN_PRES MLC_LAT MLC_LON MLC_CLASS MLC_WIND MLC_PRES USA_GUST BOM_GUST BOM_GUST_PER REUNION_GUST REUNION_GUST_PER USA_SEAHGT USA_SEARAD_NE USA_SEARAD_SE USA_SEARAD_SW USA_SEARAD_NW STORM_SPEED STORM_DIR
1958281S07092 1959 95 SI WA NOT_NAMED 1958-10-08 06:00:00 TS -7.10000 91.8000 main 993 993 O________OO___ jtwc_sh SH011959 -7.10000 91.8000 -1 -7.10000 91.8000 TC 25 -7.10000 91.8000 7 12 189
1958281S07092 1959 95 SI WA NOT_NAMED 1958-10-08 09:00:00 TS -7.70400 91.7061 main 1043 1043 P________PP___ SH011959 -7.70752 91.7051 -1 -7.70752 91.7051 TC 25 -7.69697 91.7080 7 12 189
1958281S07092 1959 95 SI WA NOT_NAMED 1958-10-08 12:00:00 TS -8.29506 91.6009 main 1096 1096 O________OP___ jtwc_sh SH011959 -8.30000 91.6000 -1 -8.30000 91.6000 TC 25 -8.28518 91.6028 7 12 191
1958281S07092 1959 95 SI WA NOT_NAMED 1958-10-08 15:00:00 TS -8.86191 91.4720 main 1150 1150 P________PP___ SH011959 -8.86497 91.4724 -1 -8.86497 91.4724 TC 25 -8.85580 91.4712 7 12 195
1958281S07092 1959 95 SI WA NOT_NAMED 1958-10-08 18:00:00 TS -9.40000 91.3000 main 1205 1205 O________OO___ jtwc_sh SH011959 -9.40000 91.3000 -1 -9.40000 91.3000 TC 25 -9.40000 91.3000 1 11 200
1958281S07092 1959 95 SI WA NOT_NAMED 1958-10-08 21:00:00 TS -9.91381 91.0839 main 1260 1260 P________PP___ SH011959 -9.91494 91.0874 -1 -9.91494 91.0874 TC 25 -9.91155 91.0768 1 11 206
1958281S07092 1959 95 SI WA NOT_NAMED 1958-10-09 00:00:00 TS -10.3981 90.7973 main 1323 1323 O________OP___ jtwc_sh SH011959 -10.4000 90.8000 -1 -10.4000 90.8000 TC 25 -10.3944 90.7917 1 11 214
1958281S07092 1959 95 SI WA NOT_NAMED 1958-10-09 03:00:00 TS -10.8566 90.4468 main 1394 1394 P________PP___ SH011959 -10.8574 90.4523 -1 -10.8574 90.4523 TC 30 -10.8551 90.4359 1 12 221
1958281S07092 1959 95 SI WA NOT_NAMED 1958-10-09 06:00:00 TS -11.3000 90.0000 main 1457 1457 O________OO___ jtwc_sh SH011959 -11.3000 90.0000 -1 -11.3000 90.0000 TC 35 -11.3000 90.0000 2 13 228
1958281S07092 1959 95 SI MM NOT_NAMED 1958-10-09 09:00:00 TS -11.7477 89.4356 main 1534 1534 P________PP___ SH011959 -11.7575 89.4300 -1 -11.7575 89.4300 TC 35 -11.7279 89.4467 2 15 233
1958281S07092 1959 95 SI MM NOT_NAMED 1958-10-09 12:00:00 TS -12.1812 88.8076 main 1620 1620 O________OP___ jtwc_sh SH011959 -12.2000 88.8000 -1 -12.2000 88.8000 TC 35 -12.1436 88.8227 2 15 236
1958281S07092 1959 95 SI MM NOT_NAMED 1958-10-09 15:00:00 TS -12.5824 88.1806 main 1697 1697 P________PP___ SH011959 -12.5925 88.1773 -1 -12.5925 88.1773 TC 35 -12.5623 88.1872 2 14 235
1958281S07092 1959 95 SI MM NOT_NAMED 1958-10-09 18:00:00 TS -13.0000 87.6000 main 1775 1775 O________OO___ jtwc_sh SH011959 -13.0000 87.6000 -1 -13.0000 87.6000 TC 35 -13.0000 87.6000 2 14 229
1958281S07092 1959 95 SI MM NOT_NAMED 1958-10-09 21:00:00 TS -13.4934 87.1049 main 1853 1853 P________PP___ SH011959 -13.4849 87.1124 -1 -13.4849 87.1124 TC 35 -13.5106 87.0901 2 14 221
1958281S07092 1959 95 SI MM NOT_NAMED 1958-10-10 00:00:00 TS -14.0124 86.6811 main 1923 1923 O________OP___ jtwc_sh SH011959 -14.0000 86.7000 -1 -14.0000 86.7000 TC 35 -14.0372 86.6432 2 13 217
1958281S07092 1959 95 SI MM NOT_NAMED 1958-10-10 03:00:00 TS -14.5350 86.2949 main 1993 1993 P________PP___ SH011959 -14.5300 86.3051 -1 -14.5300 86.3051 TC 35 -14.5452 86.2746 2 12 214
1958281S07092 1959 95 SI MM NOT_NAMED 1958-10-10 06:00:00 TS -15.0000 86.0000 main 2056 2056 O________OO___ jtwc_sh SH011959 -15.0000 86.0000 -1 -15.0000 86.0000 TC 35 -15.0000 86.0000 2 9 211
1958281S07092 1959 95 SI MM NOT_NAMED 1958-10-10 09:00:00 TS -15.3376 85.8003 main 2095 2095 P________PP___ SH011959 -15.3299 85.7973 -1 -15.3299 85.7973 TC 35 -15.3529 85.8063 2 7 205
1958281S07092 1959 95 SI MM NOT_NAMED 1958-10-10 12:00:00 TS -15.6173 85.7022 main 2126 2126 O________OP___ jtwc_sh SH011959 -15.6000 85.7000 -1 -15.6000 85.7000 TC 35 -15.6519 85.7066 2 6 192
1958281S07092 1959 95 SI MM NOT_NAMED 1958-10-10 15:00:00 TS -15.9083 85.6728 main 2150 2150 P________PP___ SH011959 -15.9000 85.6699 -1 -15.9000 85.6699 TC 35 -15.9250 85.6786 2 6 181
1958281S07092 1959 95 SI MM NOT_NAMED 1958-10-10 18:00:00 TS -16.2000 85.7000 main 2175 2175 O________OO___ jtwc_sh SH011959 -16.2000 85.7000 -1 -16.2000 85.7000 TC 35 -16.2000 85.7000 2 6 173
1958281S07092 1959 95 SI MM NOT_NAMED 1958-10-10 21:00:00 TS -16.4947 85.7404 main 2199 2199 P________PP___ SH011959 -16.4925 85.7350 -1 -16.4925 85.7350 TC 35 -16.4990 85.7511 2 6 170
1958281S07092 1959 95 SI MM NOT_NAMED 1958-10-11 00:00:00 TS -16.8068 85.8075 main 2217 2217 O________OP___ jtwc_sh SH011959 -16.8000 85.8000 -1 -16.8000 85.8000 TC 35 -16.8203 85.8225 2 7 167
1958281S07092 1959 95 SI MM NOT_NAMED 1958-10-11 03:00:00 TS -17.1455 85.8975 main 2235 2235 P________PP___ SH011959 -17.1400 85.8924 -1 -17.1400 85.8924 TC 35 -17.1565 85.9077 2 7 165
1958281S07092 1959 95 SI MM NOT_NAMED 1958-10-11 06:00:00 TS -17.5000 86.0000 main 2262 O________OO___ jtwc_sh SH011959 -17.5000 86.0000 -1 -17.5000 86.0000 TC 35 -17.5000 86.0000 2 7 165

About IBTrACS Database

This database is a web-friendly format of International Best Track Archive for Climate Stewardship (IBTrACS), a global best track data archive curated by NOAA dating back to 1842.

Updated: 2021-12-08